METAR Data
IDs: Format: Raw Decoded Include TAF

Data at: 1443 UTC 10 Aug 2022

KLVK 101353Z 00000KT 10SM CLR 16/14 A3005 RMK AO2 SLP173 T01560139
KLVK 101253Z AUTO 00000KT 10SM FEW017 15/13 A3004 RMK AO2 SLP168 T01500128
KLVK 101153Z AUTO 24003KT 10SM CLR 16/13 A3003 RMK AO2 SLP164 T01560128 10172 20150 55001
KLVK 101053Z AUTO 26005KT 10SM SCT018 16/13 A3003 RMK AO2 SLP163 T01560128
KLVK 100953Z AUTO 25005KT 10SM CLR 16/13 A3002 RMK AO2 SLP163 T01560133
KLVK 100853Z AUTO 25006KT 10SM CLR 16/13 A3003 RMK AO2 SLP165 T01610133 55000
KLVK 100753Z AUTO 19004KT 10SM CLR 17/14 A3003 RMK AO2 SLP165 T01670139 402780156
KLVK 100653Z AUTO 25006KT 10SM CLR 17/14 A3003 RMK AO2 SLP164 T01670139
KLVK 100553Z AUTO 24007KT 10SM SCT017 17/14 A3003 RMK AO2 SLP165 T01720139 10256 20167 53016
KLVK 100453Z 28011KT 10SM CLR 17/14 A3001 RMK AO2 SLP161 T01720139
KLVK 100353Z 27010KT 10SM CLR 18/14 A2999 RMK AO2 SLP152 T01780139
KLVK 100253Z 28011KT 10SM CLR 19/13 A2998 RMK AO2 SLP150 T01940128 53014
KLVK 100153Z 28013KT 10SM CLR 22/12 A2996 RMK AO2 SLP140 T02170122
KLVK 100053Z 28013G20KT 10SM CLR 24/12 A2995 RMK AO2 SLP139 T02440122
KLVK 092353Z 29016G19KT 10SM CLR 26/12 A2994 RMK AO2 SLP135 T02560117 10278 20222 55009
KLVK 092253Z 29015KT 10SM CLR 26/12 A2994 RMK AO2 SLP134 T02610117
KLVK 092153Z 28013KT 10SM CLR 28/11 A2995 RMK AO2 SLP138 T02780111
KLVK 092053Z 29014KT 10SM CLR 27/12 A2997 RMK AO2 SLP143 T02670117 58010
KLVK 091953Z 31013KT 10SM CLR 25/12 A2998 RMK AO2 SLP148 T02500117
KLVK 091853Z 28008KT 10SM CLR 24/12 A2999 RMK AO2 SLP152 T02440122
KLVK 091753Z 27009KT 10SM CLR 22/13 A3000 RMK AO2 SLP153 T02220128 10222 20156 58001
KLVK 091653Z 24005KT 10SM FEW020 20/13 A3000 RMK AO2 SLP155 T02000133
KLVK 091636Z 24008KT 10SM FEW020 20/13 A3000 RMK AO2 T02000133
KLVK 091553Z 23005KT 10SM BKN018 18/13 A3000 RMK AO2 SLP157 T01830133
KLVK 091453Z 25008KT 10SM OVC017 17/13 A3000 RMK AO2 SLP156 T01720133 52012
KLVK 091353Z 24006KT 10SM OVC016 17/13 A2999 RMK AO2 SLP151 T01670133
KLVK 091253Z AUTO 22005KT 10SM BKN018 16/13 A2998 RMK AO2 SLP146 T01610133
KLVK 091153Z AUTO 23005KT 10SM CLR 16/13 A2997 RMK AO2 SLP143 T01560133 10167 20156 55000
KLVK 091053Z AUTO 24006KT 10SM CLR 16/13 A2996 RMK AO2 SLP142 T01560133
KLVK 090953Z AUTO 25005KT 10SM CLR 16/13 A2996 RMK AO2 SLP142 T01560133
KLVK 090853Z AUTO 00000KT 10SM CLR 17/14 A2997 RMK AO2 SLP143 T01670139 58004
KLVK 090753Z AUTO 26003KT 10SM CLR 16/13 A2997 RMK AO2 SLP145 T01610133 402780139
KLVK 090653Z AUTO 27003KT 10SM CLR 16/14 A2997 RMK AO2 SLP145 T01610139
KLVK 090553Z AUTO 25005KT 10SM CLR 17/13 A2998 RMK AO2 SLP147 T01670133 10261 20161 51010
KLVK 090453Z 28006KT 10SM CLR 17/13 A2997 RMK AO2 SLP146 T01670133
KLVK 090353Z 29008KT 10SM CLR 18/14 A2996 RMK AO2 SLP143 T01780144
KLVK 090253Z 29012KT 10SM CLR 20/14 A2994 RMK AO2 SLP137 T02000144 53005